createdAt,value
2022-12-20T00:00:46.607Z,74.25
2022-12-20T00:03:52.916Z,74.81
2022-12-20T00:06:55.785Z,75.63
2022-12-20T00:10:01.213Z,75.44
2022-12-20T00:13:05.303Z,74.20
2022-12-20T00:16:09.989Z,73.37
2022-12-20T00:19:14.151Z,74.92
2022-12-20T00:22:16.859Z,74.67
2022-12-20T00:25:22.600Z,74.56
2022-12-20T00:28:26.797Z,74.34
2022-12-20T00:31:33.463Z,73.27
2022-12-20T00:34:37.483Z,74.21
2022-12-20T00:37:40.604Z,73.76
2022-12-20T00:40:45.897Z,73.87
2022-12-20T00:43:50.801Z,74.48
2022-12-20T00:46:53.834Z,74.67
2022-12-20T00:49:57.795Z,74.76
2022-12-20T00:53:00.771Z,74.49
2022-12-20T00:56:06.238Z,75.17
2022-12-20T00:59:10.232Z,74.13
2022-12-20T01:02:13.485Z,74.47
2022-12-20T01:05:17.607Z,73.65
2022-12-20T01:08:21.141Z,75.07
2022-12-20T01:11:29.431Z,74.44
2022-12-20T01:14:34.291Z,73.99
2022-12-20T01:17:37.265Z,75.53
2022-12-20T01:20:41.260Z,74.43
2022-12-20T01:23:43.995Z,73.51
2022-12-20T01:26:50.178Z,74.10
2022-12-20T01:29:54.238Z,73.96
2022-12-20T01:32:56.969Z,72.44
2022-12-20T01:36:02.738Z,73.07
2022-12-20T01:39:08.739Z,73.20
2022-12-20T01:42:16.618Z,73.23
2022-12-20T01:45:29.023Z,72.89
2022-12-20T01:48:32.047Z,73.11
2022-12-20T01:51:40.487Z,73.43
2022-12-20T01:54:47.804Z,73.10
2022-12-20T01:57:58.824Z,72.86
2022-12-20T02:01:02.893Z,71.83
2022-12-20T02:04:05.881Z,72.15
2022-12-20T02:07:12.087Z,72.28
2022-12-20T02:10:16.607Z,72.96
2022-12-20T02:13:35.835Z,72.10
2022-12-20T02:16:46.602Z,71.97
2022-12-20T02:20:24.469Z,72.54
2022-12-20T02:24:03.400Z,72.22
2022-12-20T02:27:45.463Z,72.45
2022-12-20T02:30:54.834Z,73.04
2022-12-20T02:34:00.588Z,73.79
2022-12-20T02:37:03.820Z,73.63
2022-12-20T02:40:09.425Z,72.98
2022-12-20T02:43:28.296Z,72.41
2022-12-20T02:46:33.900Z,72.48
2022-12-20T02:49:42.317Z,72.85
2022-12-20T02:52:45.715Z,72.25
2022-12-20T02:55:55.214Z,72.12
2022-12-20T03:02:27.911Z,72.91
2022-12-20T03:05:33.119Z,73.83
2022-12-20T03:08:36.608Z,71.90
2022-12-20T03:11:40.691Z,71.30
2022-12-20T03:14:44.023Z,72.20
2022-12-20T03:17:49.289Z,72.99
2022-12-20T03:20:52.026Z,72.18
2022-12-20T03:23:54.971Z,72.48
2022-12-20T03:26:59.597Z,73.21
2022-12-20T03:30:02.357Z,71.87
2022-12-20T03:33:07.693Z,73.35
2022-12-20T03:36:10.528Z,72.69
2022-12-20T03:39:13.290Z,72.93
2022-12-20T03:42:17.534Z,71.62
2022-12-20T03:45:20.343Z,70.88
2022-12-20T03:48:25.624Z,71.16
2022-12-20T03:51:29.777Z,70.91
2022-12-20T03:54:32.611Z,72.45
2022-12-20T03:57:36.441Z,72.39
2022-12-20T04:00:39.410Z,72.09
2022-12-20T04:03:44.913Z,72.86
2022-12-20T04:06:49.355Z,72.87
2022-12-20T04:09:52.248Z,73.06
2022-12-20T04:12:56.071Z,72.77
2022-12-20T04:16:00.872Z,72.10
2022-12-20T04:19:06.555Z,72.73
2022-12-20T04:22:10.491Z,72.44
2022-12-20T04:25:13.742Z,72.43
2022-12-20T04:28:17.599Z,71.92
2022-12-20T04:31:24.167Z,71.92
2022-12-20T04:34:30.096Z,72.80
2022-12-20T04:37:34.065Z,71.94
2022-12-20T04:40:38.743Z,72.93
2022-12-20T04:43:42.608Z,72.67
2022-12-20T04:46:45.611Z,72.71
2022-12-20T04:49:50.831Z,72.67
2022-12-20T04:53:12.371Z,72.77
2022-12-20T04:56:16.795Z,72.49
2022-12-20T04:59:20.628Z,72.95
2022-12-20T05:02:23.561Z,71.97
2022-12-20T05:05:29.203Z,72.31
2022-12-20T05:08:31.925Z,71.66
2022-12-20T05:11:35.764Z,72.20
2022-12-20T05:14:40.143Z,72.18
2022-12-20T05:17:42.831Z,72.86
2022-12-20T05:21:11.774Z,72.02
2022-12-20T05:24:31.834Z,72.47
2022-12-20T05:27:35.666Z,71.82
2022-12-20T05:30:38.760Z,71.69
2022-12-20T05:33:41.558Z,71.01
2022-12-20T05:36:46.856Z,70.97
2022-12-20T05:39:50.446Z,72.23
2022-12-20T05:42:54.315Z,72.14
2022-12-20T05:45:57.060Z,72.21
2022-12-20T05:49:01.198Z,72.39
2022-12-20T05:52:06.927Z,71.74
2022-12-20T05:55:10.423Z,71.79
2022-12-20T05:58:15.467Z,71.56
2022-12-20T06:01:18.344Z,72.31
2022-12-20T06:04:22.794Z,71.53
2022-12-20T06:07:30.020Z,71.81
2022-12-20T06:10:34.598Z,71.79
2022-12-20T06:13:38.788Z,72.95
2022-12-20T06:16:41.986Z,72.09
2022-12-20T06:19:45.883Z,71.71
2022-12-20T06:22:51.159Z,70.14
2022-12-20T06:25:54.341Z,72.13
2022-12-20T06:32:24.876Z,71.70
2022-12-20T06:35:29.149Z,71.32
2022-12-20T06:38:34.663Z,72.52
2022-12-20T06:41:38.170Z,72.62
2022-12-20T06:44:42.012Z,73.33
2022-12-20T06:47:44.724Z,72.07
2022-12-20T06:50:55.451Z,73.36
2022-12-20T06:54:01.431Z,73.56
2022-12-20T06:57:04.320Z,73.37
2022-12-20T07:00:11.669Z,73.90
2022-12-20T07:03:14.971Z,75.17
2022-12-20T07:06:19.098Z,75.96
2022-12-20T07:09:24.374Z,75.07
2022-12-20T07:12:27.147Z,75.11
2022-12-20T07:15:33.567Z,75.05
2022-12-20T07:18:36.432Z,76.18
2022-12-20T07:21:40.833Z,76.20
2022-12-20T07:24:46.455Z,76.21
2022-12-20T07:27:49.875Z,76.90
2022-12-20T07:30:52.955Z,77.04
2022-12-20T07:33:55.699Z,77.93
2022-12-20T07:36:59.237Z,76.28
2022-12-20T07:40:06.877Z,76.80
2022-12-20T07:43:11.719Z,76.88
2022-12-20T07:46:17.642Z,76.65
2022-12-20T07:49:20.459Z,77.02
2022-12-20T07:52:27.557Z,77.63
2022-12-20T07:55:34.641Z,77.76
2022-12-20T07:58:40.856Z,77.11
2022-12-20T08:01:46.604Z,76.53
2022-12-20T08:04:51.001Z,78.16
2022-12-20T08:07:59.387Z,78.16
2022-12-20T08:11:04.775Z,77.87
2022-12-20T08:14:11.572Z,78.46
2022-12-20T08:17:15.219Z,78.92
2022-12-20T08:20:18.938Z,79.04
2022-12-20T08:23:22.472Z,79.23
2022-12-20T08:26:27.102Z,78.67
2022-12-20T08:29:29.965Z,78.82
2022-12-20T08:32:32.727Z,78.94
2022-12-20T08:35:35.453Z,79.07
2022-12-20T08:38:39.322Z,79.54
2022-12-20T08:41:43.491Z,80.52
2022-12-20T08:44:46.335Z,80.23
2022-12-20T08:47:49.109Z,80.11
2022-12-20T08:50:56.429Z,80.99
2022-12-20T08:53:59.400Z,80.58
2022-12-20T08:57:03.632Z,79.87
2022-12-20T09:00:07.888Z,79.79
2022-12-20T09:03:11.738Z,80.49
2022-12-20T09:06:16.430Z,80.70
2022-12-20T09:09:19.472Z,79.88
2022-12-20T09:12:23.563Z,80.07
2022-12-20T09:15:27.676Z,79.82
2022-12-20T09:18:30.492Z,80.14
2022-12-20T09:21:33.307Z,80.04
2022-12-20T09:24:38.534Z,80.50
2022-12-20T09:27:47.274Z,81.22
2022-12-20T09:30:50.107Z,79.75
2022-12-20T09:33:55.005Z,79.64
2022-12-20T09:36:59.444Z,79.46
2022-12-20T09:40:02.759Z,78.59
2022-12-20T09:43:11.988Z,79.24
2022-12-20T09:46:16.488Z,78.15
2022-12-20T09:49:22.736Z,78.76
2022-12-20T09:52:50.516Z,78.38
2022-12-20T09:56:01.026Z,78.94
2022-12-20T09:59:08.858Z,78.76
2022-12-20T10:02:44.419Z,78.91
2022-12-20T10:05:47.255Z,78.40
2022-12-20T10:08:56.787Z,77.93
2022-12-20T10:12:14.717Z,77.74
2022-12-20T10:15:26.497Z,78.37
2022-12-20T10:18:49.239Z,78.64
2022-12-20T10:22:00.199Z,76.88
2022-12-20T10:25:16.409Z,77.94
2022-12-20T10:28:26.359Z,76.95
2022-12-20T10:31:33.445Z,77.59
2022-12-20T10:34:40.001Z,77.09
2022-12-20T10:38:07.920Z,77.69
2022-12-20T10:41:21.825Z,76.93
2022-12-20T10:44:28.504Z,76.58
2022-12-20T10:47:42.456Z,77.24
2022-12-20T10:50:57.785Z,77.37
2022-12-20T10:54:04.286Z,76.89
2022-12-20T10:57:20.808Z,76.31
2022-12-20T11:00:31.165Z,76.46
2022-12-20T11:03:36.912Z,77.55
2022-12-20T11:06:45.492Z,77.63
2022-12-20T11:09:59.161Z,77.84
2022-12-20T11:13:05.597Z,76.38
2022-12-20T11:16:37.289Z,76.04
2022-12-20T11:19:57.681Z,76.47
2022-12-20T11:23:19.787Z,75.99
2022-12-20T11:26:38.640Z,77.71
2022-12-20T11:30:05.966Z,76.57
2022-12-20T11:33:26.027Z,76.75
2022-12-20T11:36:50.254Z,75.73
2022-12-20T11:40:05.390Z,75.50
2022-12-20T11:43:54.177Z,74.71
2022-12-20T11:47:17.688Z,74.79
2022-12-20T11:50:45.595Z,74.71
2022-12-20T11:53:58.485Z,75.26
2022-12-20T11:57:05.399Z,74.71
2022-12-20T12:00:14.230Z,75.38
2022-12-20T12:03:28.394Z,73.80
2022-12-20T12:06:39.868Z,74.33
2022-12-20T12:09:56.482Z,74.00
2022-12-20T12:13:17.302Z,74.69
2022-12-20T12:16:25.518Z,74.39
2022-12-20T12:19:30.861Z,72.91
2022-12-20T12:22:41.921Z,72.59
2022-12-20T12:25:47.711Z,73.41
2022-12-20T12:28:57.819Z,72.92
2022-12-20T12:32:06.321Z,73.09
2022-12-20T12:35:40.189Z,73.39
2022-12-20T12:39:10.306Z,72.79
2022-12-20T12:42:46.012Z,73.12
2022-12-20T12:45:51.482Z,73.04
2022-12-20T12:49:01.201Z,71.94
2022-12-20T12:52:07.231Z,72.85
2022-12-20T12:55:45.545Z,72.37
2022-12-20T12:59:21.815Z,72.08
2022-12-20T13:02:36.426Z,72.16
2022-12-20T13:05:46.905Z,73.45
2022-12-20T13:09:10.808Z,73.41
2022-12-20T13:12:50.713Z,72.39
2022-12-20T13:16:16.454Z,73.16
2022-12-20T13:19:32.490Z,72.93
2022-12-20T13:22:35.531Z,72.87
2022-12-20T13:25:40.432Z,73.05
2022-12-20T13:28:46.870Z,73.07
2022-12-20T13:31:54.605Z,72.29
2022-12-20T13:35:01.038Z,71.70
2022-12-20T13:38:06.365Z,71.64
2022-12-20T13:41:20.287Z,72.19
2022-12-20T13:44:38.470Z,72.33
2022-12-20T13:47:52.534Z,71.82
2022-12-20T13:50:56.880Z,72.67
2022-12-20T13:54:06.058Z,71.99
2022-12-20T13:57:12.732Z,71.03
2022-12-20T14:00:18.930Z,71.77
2022-12-20T14:03:26.333Z,71.29
2022-12-20T14:06:29.531Z,70.99
2022-12-20T14:09:35.461Z,72.07
2022-12-20T14:12:44.919Z,71.47
2022-12-20T14:15:48.334Z,70.68
2022-12-20T14:19:03.094Z,71.20
2022-12-20T14:22:06.719Z,70.72
2022-12-20T14:25:13.125Z,70.43
2022-12-20T14:28:32.893Z,69.99
2022-12-20T14:31:41.469Z,70.18
2022-12-20T14:34:45.646Z,70.00
2022-12-20T14:37:54.812Z,70.44
2022-12-20T14:40:58.383Z,69.77
2022-12-20T14:44:07.129Z,69.95
2022-12-20T14:47:19.592Z,68.74
2022-12-20T14:50:31.447Z,69.32
2022-12-20T14:53:36.071Z,69.25
2022-12-20T14:56:48.003Z,70.32
2022-12-20T15:00:00.607Z,69.43
2022-12-20T15:03:13.169Z,69.14
2022-12-20T15:06:33.059Z,69.52
2022-12-20T15:09:38.809Z,70.13
2022-12-20T15:12:44.252Z,69.40
2022-12-20T15:15:47.196Z,69.80
2022-12-20T15:18:51.173Z,69.68
2022-12-20T15:21:55.860Z,70.07
2022-12-20T15:25:01.180Z,68.70
2022-12-20T15:28:06.074Z,69.03
2022-12-20T15:31:14.154Z,69.67
2022-12-20T15:34:32.231Z,68.43
2022-12-20T15:37:39.698Z,67.81
2022-12-20T15:40:42.509Z,68.87
2022-12-20T15:43:47.188Z,68.39
2022-12-20T15:46:50.467Z,69.47
2022-12-20T15:49:53.582Z,68.76
2022-12-20T15:52:58.398Z,68.24
2022-12-20T15:56:03.827Z,68.37
2022-12-20T15:59:32.545Z,69.39
2022-12-20T16:02:38.212Z,68.25
2022-12-20T16:05:43.633Z,70.46
2022-12-20T16:08:47.908Z,70.28
2022-12-20T16:11:53.355Z,70.39
2022-12-20T16:14:57.870Z,70.80
2022-12-20T16:18:00.676Z,70.67
2022-12-20T16:21:05.336Z,69.92
2022-12-20T16:24:13.883Z,69.86
2022-12-20T16:27:16.975Z,70.58
2022-12-20T16:30:23.424Z,69.87
2022-12-20T16:33:27.204Z,69.39
2022-12-20T16:36:30.707Z,69.23
2022-12-20T16:39:35.820Z,69.19
2022-12-20T16:42:38.619Z,68.47
2022-12-20T16:45:41.521Z,68.74
2022-12-20T16:48:46.653Z,68.86
2022-12-20T16:51:52.566Z,69.02
2022-12-20T16:54:58.865Z,68.88
2022-12-20T16:58:01.823Z,68.55
2022-12-20T17:01:04.797Z,69.08
2022-12-20T17:04:09.794Z,68.87
2022-12-20T17:07:14.191Z,68.99
2022-12-20T17:10:20.999Z,68.67
2022-12-20T17:13:24.235Z,67.80
2022-12-20T17:16:28.008Z,68.44
2022-12-20T17:19:30.833Z,69.29
2022-12-20T17:25:55.261Z,68.38
2022-12-20T17:29:00.577Z,68.49
2022-12-20T17:32:03.964Z,68.42
2022-12-20T17:35:08.171Z,67.32
2022-12-20T17:38:11.089Z,68.96
2022-12-20T17:41:23.196Z,68.47
2022-12-20T17:44:29.762Z,68.20
2022-12-20T17:47:33.887Z,67.30
2022-12-20T17:50:36.593Z,67.89
2022-12-20T17:53:39.567Z,66.42
2022-12-20T17:56:43.683Z,67.08
2022-12-20T17:59:48.033Z,67.01
2022-12-20T18:02:50.928Z,67.21
2022-12-20T18:09:18.299Z,67.58
2022-12-20T18:12:22.394Z,67.30
2022-12-20T18:15:26.649Z,66.88
2022-12-20T18:18:36.564Z,67.76
2022-12-20T18:21:40.419Z,66.97
2022-12-20T18:24:44.392Z,68.67
2022-12-20T18:27:48.657Z,69.04
2022-12-20T18:30:52.651Z,67.80
2022-12-20T18:33:58.360Z,69.74
2022-12-20T18:37:01.835Z,68.89
2022-12-20T18:43:28.417Z,68.75
2022-12-20T18:46:31.239Z,69.21
2022-12-20T18:49:35.659Z,69.24
2022-12-20T18:52:41.159Z,68.27
2022-12-20T18:55:45.906Z,68.58
2022-12-20T18:58:50.071Z,68.37
2022-12-20T19:01:53.212Z,68.54
2022-12-20T19:04:57.265Z,68.61
2022-12-20T19:07:59.994Z,69.13
2022-12-20T19:11:08.404Z,68.72
2022-12-20T19:14:13.522Z,69.25
2022-12-20T19:17:17.935Z,68.33
2022-12-20T19:20:21.181Z,68.93
2022-12-20T19:23:25.125Z,70.36
2022-12-20T19:26:30.964Z,69.87
2022-12-20T19:29:35.462Z,68.97
2022-12-20T19:32:39.505Z,69.98
2022-12-20T19:35:55.334Z,70.09
2022-12-20T19:39:00.752Z,70.66
2022-12-20T19:42:23.710Z,70.99
2022-12-20T19:45:30.079Z,71.38
2022-12-20T19:48:34.465Z,71.13
2022-12-20T19:51:38.810Z,72.05
2022-12-20T19:54:43.052Z,72.50
2022-12-20T19:57:47.300Z,72.73
2022-12-20T20:00:52.854Z,73.21
2022-12-20T20:03:57.194Z,72.91
2022-12-20T20:07:01.290Z,72.49
2022-12-20T20:10:04.221Z,72.33
2022-12-20T20:13:09.878Z,72.01
2022-12-20T20:16:21.945Z,71.39
2022-12-20T20:19:25.810Z,72.02
2022-12-20T20:22:29.810Z,71.90
2022-12-20T20:25:35.397Z,70.67
2022-12-20T20:28:45.017Z,71.01
2022-12-20T20:31:51.358Z,69.98
2022-12-20T20:34:54.457Z,70.60
2022-12-20T20:37:58.485Z,71.06
2022-12-20T20:41:01.808Z,70.60
2022-12-20T20:47:29.340Z,70.26
2022-12-20T20:50:32.466Z,70.55
2022-12-20T20:53:37.148Z,70.02
2022-12-20T20:56:39.893Z,70.07
2022-12-20T20:59:45.922Z,70.17
2022-12-20T21:02:51.587Z,70.19
2022-12-20T21:09:18.995Z,69.59
2022-12-20T21:12:23.383Z,69.80
2022-12-20T21:15:28.081Z,69.80
2022-12-20T21:18:33.629Z,70.14
2022-12-20T21:21:36.400Z,70.17
2022-12-20T21:24:40.958Z,71.42
2022-12-20T21:27:45.492Z,68.25
2022-12-20T21:30:48.505Z,68.08
2022-12-20T21:33:53.983Z,69.18
2022-12-20T21:36:57.147Z,68.21
2022-12-20T21:40:01.163Z,66.97
2022-12-20T21:43:03.949Z,68.06
2022-12-20T21:46:11.093Z,68.18
2022-12-20T21:49:16.091Z,68.67
2022-12-20T21:52:18.973Z,67.45
2022-12-20T21:55:25.536Z,67.29
2022-12-20T21:58:30.274Z,68.08
2022-12-20T22:01:33.246Z,67.78
2022-12-20T22:04:40.424Z,69.21
2022-12-20T22:07:43.259Z,69.20
2022-12-20T22:10:47.465Z,68.47
2022-12-20T22:13:56.706Z,68.44
2022-12-20T22:16:59.620Z,68.14
2022-12-20T22:23:25.529Z,66.31
2022-12-20T22:26:31.872Z,66.07
2022-12-20T22:29:36.022Z,67.41
2022-12-20T22:32:38.799Z,68.39
2022-12-20T22:35:44.343Z,66.49
2022-12-20T22:38:48.203Z,67.48
2022-12-20T22:41:52.675Z,66.36
2022-12-20T22:44:56.927Z,67.45
2022-12-20T22:47:59.915Z,68.02
2022-12-20T22:51:07.802Z,68.78
2022-12-20T22:54:10.568Z,67.05
2022-12-20T22:57:14.771Z,68.18
2022-12-20T23:00:19.203Z,66.76
2022-12-20T23:03:22.019Z,68.83
2022-12-20T23:06:27.589Z,68.33
2022-12-20T23:09:30.485Z,67.92
2022-12-20T23:12:52.072Z,68.35
2022-12-20T23:15:56.139Z,67.81
2022-12-20T23:19:00.399Z,68.48
2022-12-20T23:22:23.263Z,67.78
2022-12-20T23:25:26.387Z,67.73
2022-12-20T23:28:30.777Z,67.98
2022-12-20T23:31:35.694Z,68.63
2022-12-20T23:34:38.485Z,68.38
2022-12-20T23:37:43.331Z,70.23
2022-12-20T23:40:46.078Z,69.49
2022-12-20T23:43:50.369Z,69.79
2022-12-20T23:46:54.411Z,68.67
2022-12-20T23:49:57.118Z,70.35
2022-12-20T23:53:03.091Z,70.39
2022-12-20T23:56:08.308Z,70.76
2022-12-20T23:59:12.430Z,71.07
